Observation data for Tulia on 06/16/2019      Previous  Date  Next       Current Mesonet Observations  Soil Data  Daily Summary Page  Observations in Plain Language
KTIS 160500Z 05007KT 18/12 A2994 RMK A01 T01750115  RH  070%=      5-min Rain = 0
KTIS 160505Z 05007KT 17/12 A2994 RMK A01 T01710116  RH  073%=      5-min Rain = 0
KTIS 160510Z 06007KT 17/12 A2994 RMK A01 T01670117  RH  075%=      5-min Rain = 0
KTIS 160515Z 06007KT 17/12 A2994 RMK A01 T01650117  RH  076%=      5-min Rain = 0
KTIS 160520Z 06008KT 16/12 A2994 RMK A01 T01640116  RH  076%=      5-min Rain = 0
KTIS 160525Z 06008KT 16/12 A2994 RMK A01 T01610117  RH  078%=      5-min Rain = 0
KTIS 160530Z 05008KT 16/12 A2995 RMK A01 T01610116  RH  077%=      5-min Rain = 0
KTIS 160535Z 04009KT 16/11 A2995 RMK A01 T01640113  RH  075%=      5-min Rain = 0
KTIS 160540Z 03009KT 17/11 A2995 RMK A01 T01690110  RH  071%=      5-min Rain = 0
KTIS 160545Z 02009KT 17/11 A2996 RMK A01 T01730108  RH  068%=      5-min Rain = 0
KTIS 160550Z 02008KT 18/11 A2996 RMK A01 T01750108  RH  067%=      5-min Rain = 0
KTIS 160555Z 02008KT 18/11 A2995 RMK A01 T01750109  RH  068%=      5-min Rain = 0
KTIS 160600Z 03006KT 17/11 A2996 RMK A01 T01730110  RH  069%=      5-min Rain = 0
KTIS 160605Z 02005KT 17/11 A2995 RMK A01 T01710110  RH  070%=      5-min Rain = 0
KTIS 160610Z 04004KT 17/11 A2995 RMK A01 T01700112  RH  071%=      5-min Rain = 0
KTIS 160615Z 05004KT 17/12 A2995 RMK A01 T01650116  RH  076%=      5-min Rain = 0
KTIS 160620Z 07004KT 16/12 A2995 RMK A01 T01600119  RH  080%=      5-min Rain = 0
KTIS 160625Z 11002KT 16/12 A2995 RMK A01 T01560120  RH  082%=      5-min Rain = 0
KTIS 160630Z 13003KT 16/12 A2995 RMK A01 T01560121  RH  082%=      5-min Rain = 0
KTIS 160635Z 13004KT 16/12 A2995 RMK A01 T01580120  RH  081%=      5-min Rain = 0
KTIS 160640Z 13005KT 16/12 A2995 RMK A01 T01590121  RH  081%=      5-min Rain = 0
KTIS 160645Z 13004KT 16/12 A2994 RMK A01 T01580121  RH  082%=      5-min Rain = 0
KTIS 160650Z 13004KT 16/12 A2994 RMK A01 T01580120  RH  081%=      5-min Rain = 0
KTIS 160655Z 13005KT 16/12 A2994 RMK A01 T01580120  RH  081%=      5-min Rain = 0
KTIS 160700Z 13005KT 16/12 A2994 RMK A01 T01580120  RH  081%=      5-min Rain = 0
KTIS 160705Z 14005KT 16/12 A2993 RMK A01 T01580121  RH  081%=      5-min Rain = 0
KTIS 160710Z 14005KT 16/12 A2993 RMK A01 T01580121  RH  082%=      5-min Rain = 0
KTIS 160715Z 15006KT 16/12 A2993 RMK A01 T01590122  RH  082%=      5-min Rain = 0
KTIS 160720Z 14007KT 16/12 A2994 RMK A01 T01590121  RH  081%=      5-min Rain = 0
KTIS 160725Z 14007KT 16/12 A2994 RMK A01 T01610118  RH  079%=      5-min Rain = 0
KTIS 160730Z 12006KT 16/12 A2994 RMK A01 T01630117  RH  077%=      5-min Rain = 0
KTIS 160735Z 13005KT 16/12 A2994 RMK A01 T01630116  RH  076%=      5-min Rain = 0
KTIS 160740Z 14004KT 16/12 A2994 RMK A01 T01630117  RH  077%=      5-min Rain = 0
KTIS 160745Z 14003KT 16/12 A2995 RMK A01 T01620119  RH  078%=      5-min Rain = 0
KTIS 160750Z 13002KT 16/12 A2995 RMK A01 T01610120  RH  079%=      5-min Rain = 0
KTIS 160755Z 11003KT 16/12 A2995 RMK A01 T01620119  RH  079%=      5-min Rain = 0
KTIS 160800Z 10003KT 16/12 A2995 RMK A01 T01620122  RH  080%=      5-min Rain = 0
KTIS 160805Z 10005KT 16/12 A2995 RMK A01 T01620121  RH  080%=      5-min Rain = 0
KTIS 160810Z 09005KT 16/12 A2995 RMK A01 T01630119  RH  078%=      5-min Rain = 0
KTIS 160815Z 07006KT 16/12 A2995 RMK A01 T01630120  RH  079%=      5-min Rain = 0
KTIS 160820Z 07007KT 16/12 A2995 RMK A01 T01620120  RH  079%=      5-min Rain = 0
KTIS 160825Z 07008KT 16/12 A2994 RMK A01 T01600122  RH  081%=      5-min Rain = 0
KTIS 160830Z 08009KT 16/12 A2994 RMK A01 T01590123  RH  082%=      5-min Rain = 0
KTIS 160835Z 09008KT 16/12 A2994 RMK A01 T01590122  RH  082%=      5-min Rain = 0
KTIS 160840Z 08005KT 16/12 A2995 RMK A01 T01610121  RH  080%=      5-min Rain = 0
KTIS 160845Z 05007KT 16/12 A2996 RMK A01 T01630119  RH  078%=      5-min Rain = 0
KTIS 160850Z 35006KT 17/12 A2998 RMK A01 T01650118  RH  076%=      5-min Rain = 0
KTIS 160855Z 35006KT 17/12 A2999 RMK A01 T01650119  RH  077%=      5-min Rain = 0
KTIS 160900Z 02007KT 17/12 A2997 RMK A01 T01670117  RH  075%=      5-min Rain = 0
KTIS 160905Z 04007KT 17/12 A2997 RMK A01 T01690117  RH  074%=      5-min Rain = 0
KTIS 160910Z 04007KT 17/12 A2997 RMK A01 T01690116  RH  074%=      5-min Rain = 0
KTIS 160915Z 04008KT 17/12 A2996 RMK A01 T01700116  RH  073%=      5-min Rain = 0
KTIS 160920Z 04008KT 17/12 A2997 RMK A01 T01700115  RH  073%=      5-min Rain = 0
KTIS 160925Z 05008KT 17/12 A2997 RMK A01 T01700116  RH  073%=      5-min Rain = 0
KTIS 160930Z 36005KT 17/12 A2999 RMK A01 T01690117  RH  074%=      5-min Rain = 0
KTIS 160935Z 00006KT 17/12 A2999 RMK A01 T01680117  RH  075%=      5-min Rain = 0
KTIS 160940Z 01005KT 17/12 A2998 RMK A01 T01690117  RH  074%=      5-min Rain = 0
KTIS 160945Z 05006KT 17/12 A2997 RMK A01 T01690119  RH  075%=      5-min Rain = 0
KTIS 160950Z 08004KT 17/12 A2997 RMK A01 T01660120  RH  077%=      5-min Rain = 0
KTIS 160955Z 08006KT 17/12 A2996 RMK A01 T01650121  RH  078%=      5-min Rain = 0
KTIS 161000Z 07007KT 16/12 A2995 RMK A01 T01620122  RH  080%=      5-min Rain = 0
KTIS 161005Z 07006KT 16/12 A2995 RMK A01 T01600122  RH  081%=      5-min Rain = 0
KTIS 161010Z 10005KT 16/12 A2995 RMK A01 T01600124  RH  082%=      5-min Rain = 0
KTIS 161015Z 10004KT 16/12 A2995 RMK A01 T01600123  RH  082%=      5-min Rain = 0
KTIS 161020Z 11005KT 16/12 A2995 RMK A01 T01600124  RH  082%=      5-min Rain = 0
KTIS 161025Z 10005KT 16/13 A2995 RMK A01 T01590125  RH  083%=      5-min Rain = 0
KTIS 161030Z 09005KT 16/13 A2994 RMK A01 T01580125  RH  084%=      5-min Rain = 0
KTIS 161035Z 10006KT 16/13 A2993 RMK A01 T01590126  RH  084%=      5-min Rain = 0
KTIS 161040Z 11005KT 16/13 A2993 RMK A01 T01580126  RH  084%=      5-min Rain = 0
KTIS 161045Z 13005KT 16/13 A2994 RMK A01 T01580127  RH  085%=      5-min Rain = 0
KTIS 161050Z 13004KT 16/13 A2994 RMK A01 T01580126  RH  085%=      5-min Rain = 0
KTIS 161055Z 14002KT 16/13 A2995 RMK A01 T01580126  RH  085%=      5-min Rain = 0
KTIS 161100Z 14000KT 16/13 A2996 RMK A01 T01580127  RH  085%=      5-min Rain = 0
KTIS 161105Z 28003KT 16/13 A2998 RMK A01 T01600130  RH  086%=      5-min Rain = 0
KTIS 161110Z 31005KT 16/13 A2999 RMK A01 T01580128  RH  086%=      5-min Rain = 0
KTIS 161115Z 32006KT 16/13 A30 RMK A01 T01580127  RH  085%=      5-min Rain = 0
KTIS 161120Z 33009KT 16/13 A30 RMK A01 T01580126  RH  084%=      5-min Rain = 0
KTIS 161125Z 34007KT 16/13 A2999 RMK A01 T01580126  RH  085%=      5-min Rain = 0
KTIS 161130Z 35007KT 16/13 A2999 RMK A01 T01560127  RH  086%=      5-min Rain = 0
KTIS 161135Z 35005KT 15/13 A2999 RMK A01 T01540128  RH  088%=      5-min Rain = 0
KTIS 161140Z 33003KT 15/13 A2999 RMK A01 T01540128  RH  088%=      5-min Rain = 0
KTIS 161145Z 32005KT 15/13 A2999 RMK A01 T01540128  RH  088%=      5-min Rain = 0
KTIS 161150Z 31006KT 15/13 A2999 RMK A01 T01540128  RH  088%=      5-min Rain = 0
KTIS 161155Z 32006KT 15/13 A2999 RMK A01 T01540128  RH  088%=      5-min Rain = 0
KTIS 161200Z 33007KT 16/13 A2999 RMK A01 T01550127  RH  087%=      5-min Rain = 0
KTIS 161205Z 32008KT 16/13 A2999 RMK A01 T01560128  RH  087%=      5-min Rain = 0
KTIS 161210Z 32008KT 16/13 A2999 RMK A01 T01560127  RH  086%=      5-min Rain = 0
KTIS 161215Z 32006KT 16/13 A2999 RMK A01 T01560127  RH  086%=      5-min Rain = 0
KTIS 161220Z 32007KT 16/13 A2999 RMK A01 T01570127  RH  085%=      5-min Rain = 0
KTIS 161225Z 31006KT 16/13 A2999 RMK A01 T01570126  RH  085%=      5-min Rain = 0
KTIS 161230Z 31007KT 16/13 A2999 RMK A01 T01570127  RH  086%=      5-min Rain = 0
KTIS 161235Z 31006KT 16/13 A2998 RMK A01 T01570127  RH  086%=      5-min Rain = 0
KTIS 161240Z 31006KT 16/13 A2998 RMK A01 T01570127  RH  086%=      5-min Rain = 0
KTIS 161245Z 32006KT 16/13 A2998 RMK A01 T01590127  RH  085%=      5-min Rain = 0
KTIS 161250Z 31006KT 16/13 A2998 RMK A01 T01600127  RH  084%=      5-min Rain = 0
KTIS 161255Z 32004KT 16/13 A2998 RMK A01 T01610128  RH  084%=      5-min Rain = 0
KTIS 161300Z 31003KT 16/13 A2998 RMK A01 T01620128  RH  084%=      5-min Rain = 0
KTIS 161305Z 30004KT 16/13 A2998 RMK A01 T01630127  RH  083%=      5-min Rain = 0
KTIS 161310Z 31004KT 17/13 A2999 RMK A01 T01650127  RH  082%=      5-min Rain = 0
KTIS 161315Z 30004KT 17/13 A2999 RMK A01 T01660126  RH  080%=      5-min Rain = 0
KTIS 161320Z 30005KT 17/13 A2999 RMK A01 T01670126  RH  080%=      5-min Rain = 0
KTIS 161325Z 30004KT 17/13 A2999 RMK A01 T01680126  RH  079%=      5-min Rain = 0
KTIS 161330Z 30005KT 17/13 A30 RMK A01 T01690126  RH  079%=      5-min Rain = 0
KTIS 161335Z 30004KT 17/13 A30 RMK A01 T01700128  RH  079%=      5-min Rain = 0
KTIS 161340Z 30005KT 17/13 A3001 RMK A01 T01710128  RH  079%=      5-min Rain = 0
KTIS 161345Z 30005KT 17/13 A3001 RMK A01 T01720128  RH  079%=      5-min Rain = 0
KTIS 161350Z 31006KT 17/13 A3001 RMK A01 T01730128  RH  078%=      5-min Rain = 0
KTIS 161355Z 30006KT 17/13 A3001 RMK A01 T01730129  RH  078%=      5-min Rain = 0
KTIS 161400Z 30007KT 17/13 A3002 RMK A01 T01740129  RH  078%=      5-min Rain = 0
KTIS 161405Z 31006KT 17/13 A3002 RMK A01 T01740130  RH  078%=      5-min Rain = 0
KTIS 161410Z 32006KT 18/13 A3002 RMK A01 T01750131  RH  078%=      5-min Rain = 0
KTIS 161415Z 32006KT 18/13 A3002 RMK A01 T01750132  RH  079%=      5-min Rain = 0
KTIS 161420Z 34006KT 18/13 A3002 RMK A01 T01760133  RH  079%=      5-min Rain = 0
KTIS 161425Z 34006KT 18/13 A3002 RMK A01 T01760132  RH  079%=      5-min Rain = 0
KTIS 161430Z 34005KT 18/13 A3003 RMK A01 T01760132  RH  079%=      5-min Rain = 0
KTIS 161435Z 36004KT 18/13 A3003 RMK A01 T01760134  RH  079%=      5-min Rain = 0
KTIS 161440Z 36003KT 18/14 A3003 RMK A01 T01780135  RH  079%=      5-min Rain = 0
KTIS 161445Z 01002KT 18/14 A3003 RMK A01 T01790135  RH  079%=      5-min Rain = 0
KTIS 161450Z 01002KT 18/14 A3003 RMK A01 T01800135  RH  078%=      5-min Rain = 0
KTIS 161455Z 04003KT 18/14 A3004 RMK A01 T01820136  RH  078%=      5-min Rain = 0
KTIS 161500Z 04003KT 18/14 A3004 RMK A01 T01820137  RH  078%=      5-min Rain = 0
KTIS 161505Z 03004KT 18/14 A3004 RMK A01 T01820137  RH  078%=      5-min Rain = 0
KTIS 161510Z 04005KT 18/14 A3004 RMK A01 T01820136  RH  078%=      5-min Rain = 0
KTIS 161515Z 05005KT 18/14 A3004 RMK A01 T01830136  RH  078%=      5-min Rain = 0
KTIS 161520Z 05006KT 18/14 A3004 RMK A01 T01830137  RH  078%=      5-min Rain = 0
KTIS 161525Z 05007KT 18/14 A3004 RMK A01 T01830138  RH  078%=      5-min Rain = 0
KTIS 161530Z 05007KT 18/14 A3004 RMK A01 T01820140  RH  080%=      5-min Rain = 0
KTIS 161535Z 05007KT 18/14 A3004 RMK A01 T01820140  RH  080%=      5-min Rain = 0
KTIS 161540Z 04006KT 18/14 A3004 RMK A01 T01810140  RH  080%=      5-min Rain = 0
KTIS 161545Z 03007KT 18/14 A3004 RMK A01 T01820140  RH  080%=      5-min Rain = 0
KTIS 161550Z 04007KT 18/14 A3004 RMK A01 T01830139  RH  079%=      5-min Rain = 0
KTIS 161555Z 03008KT 19/14 A3004 RMK A01 T01860141  RH  078%=      5-min Rain = 0
KTIS 161600Z 03010KT 19/14 A3004 RMK A01 T01880142  RH  078%=      5-min Rain = 0
KTIS 161605Z 02009KT 19/14 A3004 RMK A01 T01890143  RH  078%=      5-min Rain = 0
KTIS 161610Z 02010KT 19/14 A3003 RMK A01 T01880138  RH  076%=      5-min Rain = 0
KTIS 161615Z 02008KT 19/14 A3003 RMK A01 T01890139  RH  076%=      5-min Rain = 0
KTIS 161620Z 02009KT 19/14 A3003 RMK A01 T01920140  RH  075%=      5-min Rain = 0
KTIS 161625Z 02009G14KT 19/14 A3003 RMK A01 T01930140  RH  074%=      5-min Rain = 0
KTIS 161630Z 02009KT 19/14 A3002 RMK A01 T01930136  RH  072%=      5-min Rain = 0
KTIS 161635Z 01011KT 20/14 A3002 RMK A01 T01950137  RH  072%=      5-min Rain = 0
KTIS 161640Z 01010G15KT 20/14 A3002 RMK A01 T01950138  RH  073%=      5-min Rain = 0
KTIS 161645Z 01009KT 20/14 A3002 RMK A01 T01960140  RH  073%=      5-min Rain = 0
KTIS 161650Z 02008KT 20/14 A3002 RMK A01 T01970141  RH  073%=      5-min Rain = 0
KTIS 161655Z 02007KT 20/14 A3002 RMK A01 T01990142  RH  073%=      5-min Rain = 0
KTIS 161700Z 01008KT 20/14 A3002 RMK A01 T01980143  RH  074%=      5-min Rain = 0
KTIS 161705Z 02007KT 20/14 A3003 RMK A01 T01980143  RH  073%=      5-min Rain = 0
KTIS 161710Z 01007KT 20/14 A3003 RMK A01 T01970139  RH  072%=      5-min Rain = 0
KTIS 161715Z 03007KT 20/14 A3003 RMK A01 T01990139  RH  071%=      5-min Rain = 0
KTIS 161720Z 03006KT 20/14 A3003 RMK A01 T02000141  RH  072%=      5-min Rain = 0
KTIS 161725Z 00007KT 20/14 A3003 RMK A01 T02010141  RH  072%=      5-min Rain = 0
KTIS 161730Z 00006KT 20/14 A3003 RMK A01 T02020141  RH  071%=      5-min Rain = 0
KTIS 161735Z 01004KT 20/14 A3003 RMK A01 T02010139  RH  070%=      5-min Rain = 0
KTIS 161740Z 35006KT 20/14 A3003 RMK A01 T02030138  RH  069%=      5-min Rain = 0
KTIS 161745Z 36004KT 20/14 A3003 RMK A01 T02040140  RH  070%=      5-min Rain = 0
KTIS 161750Z 35005KT 21/14 A3003 RMK A01 T02080136  RH  066%=      5-min Rain = 0
KTIS 161755Z 34005KT 21/14 A3002 RMK A01 T02080135  RH  065%=      5-min Rain = 0
KTIS 161800Z 34005KT 21/14 A3002 RMK A01 T02110137  RH  065%=      5-min Rain = 0
KTIS 161805Z 34006KT 21/14 A3002 RMK A01 T02120137  RH  065%=      5-min Rain = 0
KTIS 161810Z 35006KT 21/14 A3002 RMK A01 T02140137  RH  064%=      5-min Rain = 0
KTIS 161815Z 36005KT 21/13 A3002 RMK A01 T02140134  RH  063%=      5-min Rain = 0
KTIS 161820Z 36005KT 21/14 A3002 RMK A01 T02140136  RH  063%=      5-min Rain = 0.01
KTIS 161825Z 33005KT 22/14 A3002 RMK A01 T02160135  RH  062%=      5-min Rain = 0
KTIS 161830Z 34004KT 22/13 A3001 RMK A01 T02170134  RH  062%=      5-min Rain = 0
KTIS 161835Z 34004KT 22/14 A3001 RMK A01 T02170135  RH  062%=      5-min Rain = 0
KTIS 161840Z 33004KT 22/14 A3001 RMK A01 T02190136  RH  062%=      5-min Rain = 0
KTIS 161845Z 36004KT 22/14 A3001 RMK A01 T02190135  RH  061%=      5-min Rain = 0
KTIS 161850Z 01003KT 22/14 A3001 RMK A01 T02180135  RH  062%=      5-min Rain = 0
KTIS 161855Z 30004KT 22/13 A3001 RMK A01 T02190133  RH  060%=      5-min Rain = 0
KTIS 161900Z 30004KT 22/14 A30 RMK A01 T02210135  RH  061%=      5-min Rain = 0
KTIS 161905Z 32002KT 22/14 A30 RMK A01 T02220136  RH  061%=      5-min Rain = 0
KTIS 161910Z 35005KT 22/13 A30 RMK A01 T02220132  RH  059%=      5-min Rain = 0
KTIS 161915Z 01005KT 22/13 A30 RMK A01 T02210130  RH  058%=      5-min Rain = 0
KTIS 161920Z 35006KT 22/13 A30 RMK A01 T02210129  RH  058%=      5-min Rain = 0
KTIS 161925Z 34005KT 22/13 A30 RMK A01 T02210125  RH  057%=      5-min Rain = 0
KTIS 161930Z 34006KT 22/13 A30 RMK A01 T02210129  RH  058%=      5-min Rain = 0
KTIS 161935Z 33005KT 22/13 A30 RMK A01 T02210131  RH  059%=      5-min Rain = 0
KTIS 161940Z 35004KT 22/13 A30 RMK A01 T02230133  RH  059%=      5-min Rain = 0
KTIS 161945Z 32004KT 22/13 A30 RMK A01 T02230131  RH  058%=      5-min Rain = 0
KTIS 161950Z 32005KT 23/13 A30 RMK A01 T02250133  RH  058%=      5-min Rain = 0
KTIS 161955Z 32003KT 23/13 A30 RMK A01 T02260133  RH  058%=      5-min Rain = 0
KTIS 162000Z 33004KT 22/13 A2999 RMK A01 T02230131  RH  058%=      5-min Rain = 0
KTIS 162005Z 32004KT 23/13 A2999 RMK A01 T02250132  RH  058%=      5-min Rain = 0
KTIS 162010Z 33004KT 23/13 A2999 RMK A01 T02260132  RH  058%=      5-min Rain = 0
KTIS 162015Z 32003KT 23/13 A2999 RMK A01 T02280134  RH  058%=      5-min Rain = 0
KTIS 162020Z 31005KT 23/14 A2999 RMK A01 T02310135  RH  057%=      5-min Rain = 0
KTIS 162025Z 30004KT 23/13 A2999 RMK A01 T02310133  RH  056%=      5-min Rain = 0
KTIS 162030Z 35005KT 23/13 A2999 RMK A01 T02330134  RH  056%=      5-min Rain = 0
KTIS 162035Z 32004KT 23/13 A2998 RMK A01 T02330133  RH  056%=      5-min Rain = 0
KTIS 162040Z 01003KT 24/14 A2998 RMK A01 T02380136  RH  055%=      5-min Rain = 0
KTIS 162045Z 05003KT 24/14 A2998 RMK A01 T02440136  RH  053%=      5-min Rain = 0
KTIS 162050Z 35004KT 25/14 A2998 RMK A01 T02460135  RH  052%=      5-min Rain = 0
KTIS 162055Z 35003KT 25/13 A2998 RMK A01 T02450129  RH  050%=      5-min Rain = 0
KTIS 162100Z 02002KT 25/14 A2998 RMK A01 T02470135  RH  052%=      5-min Rain = 0
KTIS 162105Z 35004KT 25/13 A2998 RMK A01 T02480131  RH  050%=      5-min Rain = 0
KTIS 162110Z 32003KT 24/13 A2998 RMK A01 T02440128  RH  050%=      5-min Rain = 0
KTIS 162115Z 36002KT 24/13 A2998 RMK A01 T02440130  RH  051%=      5-min Rain = 0
KTIS 162120Z 03002G7KT 25/13 A2998 RMK A01 T02450130  RH  051%=      5-min Rain = 0
KTIS 162125Z 03003KT 25/13 A2998 RMK A01 T02480132  RH  050%=      5-min Rain = 0
KTIS 162130Z 01002KT 25/13 A2997 RMK A01 T02490132  RH  050%=      5-min Rain = 0
KTIS 162135Z 33003KT 25/13 A2997 RMK A01 T02500130  RH  049%=      5-min Rain = 0
KTIS 162140Z 34001KT 25/13 A2997 RMK A01 T02480131  RH  050%=      5-min Rain = 0
KTIS 162145Z 06006G11KT 25/14 A2997 RMK A01 T02500138  RH  052%=      5-min Rain = 0
KTIS 162150Z 07007KT 25/14 A2997 RMK A01 T02470140  RH  053%=      5-min Rain = 0
KTIS 162155Z 08005KT 25/14 A2997 RMK A01 T02470138  RH  053%=      5-min Rain = 0
KTIS 162200Z 07005KT 25/14 A2997 RMK A01 T02480139  RH  053%=      5-min Rain = 0
KTIS 162205Z 06004G9KT 25/14 A2997 RMK A01 T02500138  RH  052%=      5-min Rain = 0
KTIS 162210Z 06005KT 25/14 A2997 RMK A01 T02510139  RH  052%=      5-min Rain = 0
KTIS 162215Z 10004KT 25/14 A2997 RMK A01 T02510138  RH  051%=      5-min Rain = 0
KTIS 162220Z 08005KT 25/14 A2997 RMK A01 T02540140  RH  051%=      5-min Rain = 0
KTIS 162225Z 08006KT 26/14 A2997 RMK A01 T02550143  RH  052%=      5-min Rain = 0
KTIS 162230Z 08007KT 26/14 A2997 RMK A01 T02560144  RH  052%=      5-min Rain = 0
KTIS 162235Z 08006KT 25/15 A2996 RMK A01 T02500145  RH  054%=      5-min Rain = 0
KTIS 162240Z 06006KT 26/15 A2996 RMK A01 T02550146  RH  053%=      5-min Rain = 0
KTIS 162245Z 06007KT 26/14 A2996 RMK A01 T02590143  RH  051%=      5-min Rain = 0
KTIS 162250Z 07006KT 26/14 A2996 RMK A01 T02560141  RH  051%=      5-min Rain = 0
KTIS 162255Z 07005KT 26/14 A2996 RMK A01 T02560138  RH  050%=      5-min Rain = 0
KTIS 162300Z 07007KT 26/14 A2996 RMK A01 T02560141  RH  051%=      5-min Rain = 0
KTIS 162305Z 05008KT 25/14 A2996 RMK A01 T02540140  RH  051%=      5-min Rain = 0
KTIS 162310Z 06004KT 25/14 A2996 RMK A01 T02540138  RH  051%=      5-min Rain = 0
KTIS 162315Z 06007G12KT 26/14 A2996 RMK A01 T02560142  RH  051%=      5-min Rain = 0
KTIS 162320Z 07008G13KT 26/14 A2995 RMK A01 T02550140  RH  051%=      5-min Rain = 0
KTIS 162325Z 07008KT 25/14 A2995 RMK A01 T02530138  RH  051%=      5-min Rain = 0
KTIS 162330Z 05007KT 25/14 A2995 RMK A01 T02520138  RH  051%=      5-min Rain = 0
KTIS 162335Z 05007KT 25/14 A2995 RMK A01 T02530138  RH  051%=      5-min Rain = 0
KTIS 162340Z 05007KT 26/14 A2995 RMK A01 T02550138  RH  050%=      5-min Rain = 0
KTIS 162345Z 03006KT 25/13 A2995 RMK A01 T02520134  RH  050%=      5-min Rain = 0
KTIS 162350Z 05006KT 26/14 A2995 RMK A01 T02550135  RH  049%=      5-min Rain = 0
KTIS 162355Z 04005KT 26/13 A2995 RMK A01 T02570133  RH  048%=      5-min Rain = 0
KTIS 170000Z 06006KT 26/13 A2995 RMK A01 T02580129  RH  047%=      5-min Rain = 0
KTIS 170005Z 05006KT 26/13 A2995 RMK A01 T02570128  RH  047%=      5-min Rain = 0
KTIS 170010Z 06006KT 25/13 A2995 RMK A01 T02540126  RH  047%=      5-min Rain = 0
KTIS 170015Z 07007KT 25/13 A2995 RMK A01 T02480128  RH  049%=      5-min Rain = 0
KTIS 170020Z 06007KT 25/13 A2995 RMK A01 T02450126  RH  049%=      5-min Rain = 0
KTIS 170025Z 04006KT 24/13 A2995 RMK A01 T02440126  RH  049%=      5-min Rain = 0
KTIS 170030Z 04006KT 24/13 A2995 RMK A01 T02420128  RH  051%=      5-min Rain = 0
KTIS 170035Z 05005KT 24/13 A2995 RMK A01 T02400131  RH  053%=      5-min Rain = 0
KTIS 170040Z 05005KT 24/13 A2996 RMK A01 T02380132  RH  054%=      5-min Rain = 0
KTIS 170045Z 05006KT 24/13 A2996 RMK A01 T02380129  RH  052%=      5-min Rain = 0
KTIS 170050Z 06005KT 24/13 A2996 RMK A01 T02390131  RH  053%=      5-min Rain = 0
KTIS 170055Z 06005KT 24/14 A2996 RMK A01 T02370136  RH  055%=      5-min Rain = 0
KTIS 170100Z 07005KT 24/14 A2996 RMK A01 T02380141  RH  057%=      5-min Rain = 0
KTIS 170105Z 07005KT 24/14 A2996 RMK A01 T02390144  RH  058%=      5-min Rain = 0
KTIS 170110Z 07006KT 24/14 A2996 RMK A01 T02380142  RH  057%=      5-min Rain = 0
KTIS 170115Z 07007KT 24/14 A2996 RMK A01 T02360141  RH  057%=      5-min Rain = 0
KTIS 170120Z 07008KT 23/14 A2997 RMK A01 T02340136  RH  056%=      5-min Rain = 0
KTIS 170125Z 08006KT 23/14 A2997 RMK A01 T02310138  RH  058%=      5-min Rain = 0
KTIS 170130Z 08006KT 23/14 A2997 RMK A01 T02270137  RH  059%=      5-min Rain = 0
KTIS 170135Z 07006KT 22/14 A2997 RMK A01 T02230135  RH  060%=      5-min Rain = 0
KTIS 170140Z 07006KT 22/14 A2997 RMK A01 T02180135  RH  062%=      5-min Rain = 0
KTIS 170145Z 07006KT 21/13 A2998 RMK A01 T02130134  RH  063%=      5-min Rain = 0
KTIS 170150Z 07006KT 21/13 A2998 RMK A01 T02070134  RH  065%=      5-min Rain = 0
KTIS 170155Z 06007KT 20/13 A2998 RMK A01 T02030132  RH  066%=      5-min Rain = 0
KTIS 170200Z 06007KT 20/13 A2998 RMK A01 T02010131  RH  067%=      5-min Rain = 0
KTIS 170205Z 06007KT 20/13 A2998 RMK A01 T01970131  RH  068%=      5-min Rain = 0
KTIS 170210Z 06006KT 19/13 A2998 RMK A01 T01940132  RH  071%=      5-min Rain = 0
KTIS 170215Z 06007KT 19/13 A2998 RMK A01 T01900131  RH  071%=      5-min Rain = 0
KTIS 170220Z 06008KT 19/13 A2998 RMK A01 T01870131  RH  073%=      5-min Rain = 0
KTIS 170225Z 06008KT 19/13 A2998 RMK A01 T01850131  RH  073%=      5-min Rain = 0
KTIS 170230Z 06008KT 19/13 A2998 RMK A01 T01860131  RH  073%=      5-min Rain = 0
KTIS 170235Z 07007KT 19/13 A2998 RMK A01 T01860132  RH  074%=      5-min Rain = 0
KTIS 170240Z 07007KT 19/13 A2999 RMK A01 T01850133  RH  075%=      5-min Rain = 0
KTIS 170245Z 07007KT 18/13 A2998 RMK A01 T01810133  RH  076%=      5-min Rain = 0
KTIS 170250Z 07007KT 18/13 A2999 RMK A01 T01790133  RH  078%=      5-min Rain = 0
KTIS 170255Z 07007KT 18/13 A2999 RMK A01 T01780133  RH  078%=      5-min Rain = 0
KTIS 170300Z 07007KT 18/13 A2999 RMK A01 T01760133  RH  079%=      5-min Rain = 0
KTIS 170305Z 07007KT 18/13 A30 RMK A01 T01760133  RH  079%=      5-min Rain = 0
KTIS 170310Z 07008KT 18/13 A30 RMK A01 T01760134  RH  079%=      5-min Rain = 0
KTIS 170315Z 07007KT 18/14 A30 RMK A01 T01770135  RH  079%=      5-min Rain = 0
KTIS 170320Z 07007KT 18/14 A30 RMK A01 T01760135  RH  080%=      5-min Rain = 0
KTIS 170325Z 07007KT 17/14 A30 RMK A01 T01730135  RH  081%=      5-min Rain = 0
KTIS 170330Z 07007KT 17/13 A30 RMK A01 T01720134  RH  082%=      5-min Rain = 0
KTIS 170335Z 07007KT 17/14 A3001 RMK A01 T01720135  RH  082%=      5-min Rain = 0
KTIS 170340Z 07007KT 17/13 A3001 RMK A01 T01710134  RH  082%=      5-min Rain = 0
KTIS 170345Z 07006KT 17/14 A3001 RMK A01 T01710135  RH  082%=      5-min Rain = 0
KTIS 170350Z 07006KT 17/13 A3001 RMK A01 T01690134  RH  083%=      5-min Rain = 0
KTIS 170355Z 07006KT 17/13 A3001 RMK A01 T01670134  RH  084%=      5-min Rain = 0
KTIS 170400Z 07006KT 17/13 A3001 RMK A01 T01650134  RH  085%=      5-min Rain = 0
KTIS 170405Z 07005KT 16/13 A3002 RMK A01 T01640132  RH  085%=      5-min Rain = 0
KTIS 170410Z 07005KT 16/13 A3002 RMK A01 T01630132  RH  086%=      5-min Rain = 0
KTIS 170415Z 08005KT 16/13 A3002 RMK A01 T01620133  RH  086%=      5-min Rain = 0
KTIS 170420Z 08006KT 16/13 A3002 RMK A01 T01610132  RH  086%=      5-min Rain = 0
KTIS 170425Z 08006KT 16/13 A3002 RMK A01 T01610133  RH  087%=      5-min Rain = 0
KTIS 170430Z 08006KT 16/13 A3002 RMK A01 T01610133  RH  087%=      5-min Rain = 0
KTIS 170435Z 08005KT 16/13 A3002 RMK A01 T01600132  RH  087%=      5-min Rain = 0
KTIS 170440Z 08005KT 16/13 A3002 RMK A01 T01590131  RH  087%=      5-min Rain = 0
KTIS 170445Z 08006KT 16/13 A3002 RMK A01 T01580131  RH  087%=      5-min Rain = 0
KTIS 170450Z 08006KT 16/13 A3002 RMK A01 T01570130  RH  087%=      5-min Rain = 0
KTIS 170455Z 08005KT 16/13 A3002 RMK A01 T01560130  RH  088%=      5-min Rain = 0

Page generated in 0.0117 seconds.